KASL/ASL METAR and TAF weather

Enter ICAO airport designator
Station Type Date Time Source
KASL METAR 2018/07/21 03:55 UTC NOAA

KASL 210355Z AUTO 19004KT 10SM CLR 30/22 A2993 RMK AO1 T02950217


Station Type Date Time Source
KASL Decoded METAR 2018/07/21 03:55 UTC NOAA

Station name not available
Jul 20, 2018 - 11:55 PM EDT / 2018.07.21 0355 UTC
Wind: from the S (190 degrees) at 5 MPH (4 KT):0
Visibility: 10 mile(s):0
Sky conditions: clear
Temperature: 85.1 F (29.5 C)
Dew Point: 71.1 F (21.7 C)
Relative Humidity: 62%
Pressure (altimeter): 29.93 in. Hg (1013 hPa)
ob: KASL 210355Z AUTO 19004KT 10SM CLR 30/22 A2993 RMK AO1 T02950217
cycle: 4

Station Type Date Time Source
KASL TAF UTC NOAA

Error!


Example: see airport list